sensor_id;sensor_type;location;lat;lon;timestamp;pressure;altitude;pressure_sealevel;temperature;humidity
54270;BME280;40181;51.560;13.000;2023-11-19T00:01:06;100609.38;;;5.06;100.00
54270;BME280;40181;51.560;13.000;2023-11-19T00:03:35;100602.25;;;5.00;100.00
54270;BME280;40181;51.560;13.000;2023-11-19T00:06:07;100605.09;;;4.83;100.00
54270;BME280;40181;51.560;13.000;2023-11-19T00:08:37;100602.84;;;4.93;100.00
54270;BME280;40181;51.560;13.000;2023-11-19T00:11:06;100621.41;;;5.02;100.00
54270;BME280;40181;51.560;13.000;2023-11-19T00:13:36;100597.28;;;5.06;100.00
54270;BME280;40181;51.560;13.000;2023-11-19T00:16:06;100589.13;;;4.74;100.00
54270;BME280;40181;51.560;13.000;2023-11-19T00:18:37;100581.00;;;4.89;100.00
54270;BME280;40181;51.560;13.000;2023-11-19T00:21:08;100582.94;;;4.95;100.00
54270;BME280;40181;51.560;13.000;2023-11-19T00:23:37;100590.72;;;4.93;100.00
54270;BME280;40181;51.560;13.000;2023-11-19T00:26:06;100600.13;;;4.90;100.00
54270;BME280;40181;51.560;13.000;2023-11-19T00:28:35;100577.53;;;4.89;100.00
54270;BME280;40181;51.560;13.000;2023-11-19T00:31:04;100573.66;;;4.77;100.00
54270;BME280;40181;51.560;13.000;2023-11-19T00:33:33;100566.97;;;5.08;100.00
54270;BME280;40181;51.560;13.000;2023-11-19T00:36:03;100567.56;;;5.01;100.00
54270;BME280;40181;51.560;13.000;2023-11-19T00:38:35;100566.97;;;4.84;100.00
54270;BME280;40181;51.560;13.000;2023-11-19T00:41:04;100549.91;;;5.17;100.00
54270;BME280;40181;51.560;13.000;2023-11-19T00:43:33;100554.13;;;4.66;100.00
54270;BME280;40181;51.560;13.000;2023-11-19T00:46:02;100539.84;;;5.03;100.00
54270;BME280;40181;51.560;13.000;2023-11-19T00:48:31;100540.09;;;4.85;100.00
54270;BME280;40181;51.560;13.000;2023-11-19T00:51:00;100514.56;;;4.99;100.00
54270;BME280;40181;51.560;13.000;2023-11-19T00:53:29;100498.31;;;5.06;100.00
54270;BME280;40181;51.560;13.000;2023-11-19T00:56:01;100501.16;;;4.88;100.00
54270;BME280;40181;51.560;13.000;2023-11-19T00:58:31;100513.41;;;4.91;100.00
54270;BME280;40181;51.560;13.000;2023-11-19T01:01:00;100501.53;;;4.99;100.00
54270;BME280;40181;51.560;13.000;2023-11-19T01:03:28;100490.16;;;4.71;100.00
54270;BME280;40181;51.560;13.000;2023-11-19T01:05:58;100482.38;;;4.97;100.00
54270;BME280;40181;51.560;13.000;2023-11-19T01:08:27;100487.75;;;5.02;100.00
54270;BME280;40181;51.560;13.000;2023-11-19T01:10:56;100485.19;;;4.79;100.00
54270;BME280;40181;51.560;13.000;2023-11-19T01:13:28;100465.94;;;4.98;100.00
54270;BME280;40181;51.560;13.000;2023-11-19T01:15:57;100460.25;;;5.10;100.00
54270;BME280;40181;51.560;13.000;2023-11-19T01:18:27;100454.56;;;5.22;100.00
54270;BME280;40181;51.560;13.000;2023-11-19T01:20:56;100432.44;;;5.09;100.00
54270;BME280;40181;51.560;13.000;2023-11-19T01:23:25;100423.97;;;4.90;100.00
54270;BME280;40181;51.560;13.000;2023-11-19T01:25:54;100431.78;;;4.90;100.00
54270;BME280;40181;51.560;13.000;2023-11-19T01:28:23;100420.09;;;5.03;100.00
54270;BME280;40181;51.560;13.000;2023-11-19T01:30:55;100418.06;;;4.94;100.00
54270;BME280;40181;51.560;13.000;2023-11-19T01:33:23;100403.69;;;5.06;100.00
54270;BME280;40181;51.560;13.000;2023-11-19T01:35:53;100395.03;;;4.81;100.00
54270;BME280;40181;51.560;13.000;2023-11-19T01:38:23;100406.50;;;5.12;100.00
54270;BME280;40181;51.560;13.000;2023-11-19T01:40:55;100396.94;;;5.11;100.00
54270;BME280;40181;51.560;13.000;2023-11-19T01:43:31;100394.03;;;5.02;100.00
54270;BME280;40181;51.560;13.000;2023-11-19T01:46:04;100395.84;;;5.04;100.00
54270;BME280;40181;51.560;13.000;2023-11-19T01:48:34;100371.88;;;5.15;100.00
54270;BME280;40181;51.560;13.000;2023-11-19T01:51:05;100356.81;;;4.78;100.00
54270;BME280;40181;51.560;13.000;2023-11-19T01:53:35;100348.78;;;4.98;100.00
54270;BME280;40181;51.560;13.000;2023-11-19T01:56:06;100329.34;;;4.88;100.00
54270;BME280;40181;51.560;13.000;2023-11-19T01:58:36;100334.63;;;4.90;100.00
54270;BME280;40181;51.560;13.000;2023-11-19T02:01:08;100332.59;;;5.08;100.00
54270;BME280;40181;51.560;13.000;2023-11-19T02:03:37;100333.19;;;5.27;100.00
54270;BME280;40181;51.560;13.000;2023-11-19T02:06:07;100331.41;;;5.26;100.00
54270;BME280;40181;51.560;13.000;2023-11-19T02:08:37;100331.41;;;5.26;100.00
54270;BME280;40181;51.560;13.000;2023-11-19T02:11:06;100303.56;;;5.23;100.00
54270;BME280;40181;51.560;13.000;2023-11-19T02:13:36;100305.03;;;5.15;100.00
54270;BME280;40181;51.560;13.000;2023-11-19T02:16:09;100310.63;;;5.00;100.00
54270;BME280;40181;51.560;13.000;2023-11-19T02:18:39;100290.34;;;5.17;100.00
54270;BME280;40181;51.560;13.000;2023-11-19T02:21:08;100290.72;;;5.30;100.00
54270;BME280;40181;51.560;13.000;2023-11-19T02:23:37;100287.22;;;5.00;100.00
54270;BME280;40181;51.560;13.000;2023-11-19T02:26:10;100280.81;;;5.18;100.00
54270;BME280;40181;51.560;13.000;2023-11-19T02:28:45;100286.03;;;5.18;100.00
54270;BME280;40181;51.560;13.000;2023-11-19T02:31:15;100280.13;;;5.23;100.00
54270;BME280;40181;51.560;13.000;2023-11-19T02:33:44;100288.69;;;5.19;100.00
54270;BME280;40181;51.560;13.000;2023-11-19T02:36:15;100274.47;;;5.09;100.00
54270;BME280;40181;51.560;13.000;2023-11-19T02:38:44;100263.50;;;5.20;100.00
54270;BME280;40181;51.560;13.000;2023-11-19T02:41:13;100257.19;;;5.40;100.00
54270;BME280;40181;51.560;13.000;2023-11-19T02:43:42;100260.19;;;5.24;100.00
54270;BME280;40181;51.560;13.000;2023-11-19T02:46:14;100246.53;;;5.33;100.00
54270;BME280;40181;51.560;13.000;2023-11-19T02:48:43;100237.88;;;5.05;100.00
54270;BME280;40181;51.560;13.000;2023-11-19T02:51:12;100227.50;;;5.35;100.00
54270;BME280;40181;51.560;13.000;2023-11-19T02:53:41;100225.28;;;5.19;100.00
54270;BME280;40181;51.560;13.000;2023-11-19T02:56:13;100217.47;;;5.19;100.00
54270;BME280;40181;51.560;13.000;2023-11-19T02:58:52;100202.88;;;5.24;100.00
54270;BME280;40181;51.560;13.000;2023-11-19T03:01:21;100184.50;;;5.19;100.00
54270;BME280;40181;51.560;13.000;2023-11-19T03:03:54;100182.19;;;5.30;100.00
54270;BME280;40181;51.560;13.000;2023-11-19T03:06:23;100176.94;;;4.98;100.00
54270;BME280;40181;51.560;13.000;2023-11-19T03:08:52;100173.84;;;5.11;100.00
54270;BME280;40181;51.560;13.000;2023-11-19T03:11:22;100179.44;;;5.24;100.00
54270;BME280;40181;51.560;13.000;2023-11-19T03:13:53;100167.34;;;5.26;100.00
54270;BME280;40181;51.560;13.000;2023-11-19T03:16:22;100169.88;;;5.23;100.00
54270;BME280;40181;51.560;13.000;2023-11-19T03:18:51;100154.97;;;5.19;100.00
54270;BME280;40181;51.560;13.000;2023-11-19T03:21:26;100145.84;;;5.33;100.00
54270;BME280;40181;51.560;13.000;2023-11-19T03:23:56;100135.28;;;5.29;100.00
54270;BME280;40181;51.560;13.000;2023-11-19T03:26:26;100131.91;;;5.01;100.00
54270;BME280;40181;51.560;13.000;2023-11-19T03:28:57;100140.78;;;5.39;100.00
54270;BME280;40181;51.560;13.000;2023-11-19T03:31:26;100132.03;;;5.37;100.00
54270;BME280;40181;51.560;13.000;2023-11-19T03:33:55;100132.22;;;5.44;100.00
54270;BME280;40181;51.560;13.000;2023-11-19T03:36:24;100131.75;;;5.26;100.00
54270;BME280;40181;51.560;13.000;2023-11-19T03:38:53;100121.03;;;5.48;100.00
54270;BME280;40181;51.560;13.000;2023-11-19T03:41:22;100109.97;;;5.24;100.00
54270;BME280;40181;51.560;13.000;2023-11-19T03:43:51;100104.16;;;5.33;100.00
54270;BME280;40181;51.560;13.000;2023-11-19T03:46:23;100087.63;;;5.33;100.00
54270;BME280;40181;51.560;13.000;2023-11-19T03:48:52;100094.63;;;5.03;100.00
54270;BME280;40181;51.560;13.000;2023-11-19T03:51:21;100091.03;;;5.30;100.00
54270;BME280;40181;51.560;13.000;2023-11-19T03:53:50;100081.94;;;5.48;100.00
54270;BME280;40181;51.560;13.000;2023-11-19T03:56:19;100081.22;;;5.52;100.00
54270;BME280;40181;51.560;13.000;2023-11-19T03:58:48;100083.03;;;5.56;100.00
54270;BME280;40181;51.560;13.000;2023-11-19T04:01:17;100083.03;;;5.56;100.00
54270;BME280;40181;51.560;13.000;2023-11-19T04:03:48;100071.13;;;5.66;100.00
54270;BME280;40181;51.560;13.000;2023-11-19T04:06:17;100066.22;;;5.77;100.00
54270;BME280;40181;51.560;13.000;2023-11-19T04:08:46;100059.75;;;5.62;100.00
54270;BME280;40181;51.560;13.000;2023-11-19T04:11:15;100056.22;;;5.60;100.00
54270;BME280;40181;51.560;13.000;2023-11-19T04:13:44;100046.03;;;5.70;100.00
54270;BME280;40181;51.560;13.000;2023-11-19T04:16:13;100041.50;;;5.62;100.00
54270;BME280;40181;51.560;13.000;2023-11-19T04:18:42;100032.91;;;5.66;100.00
54270;BME280;40181;51.560;13.000;2023-11-19T04:21:14;100019.41;;;5.83;100.00
54270;BME280;40181;51.560;13.000;2023-11-19T04:23:43;100019.50;;;5.86;100.00
54270;BME280;40181;51.560;13.000;2023-11-19T04:26:12;100019.06;;;5.67;100.00
54270;BME280;40181;51.560;13.000;2023-11-19T04:28:41;100019.91;;;5.31;100.00
54270;BME280;40181;51.560;13.000;2023-11-19T04:31:10;100011.38;;;5.74;100.00
54270;BME280;40181;51.560;13.000;2023-11-19T04:33:41;100015.13;;;5.85;100.00
54270;BME280;40181;51.560;13.000;2023-11-19T04:36:10;100017.56;;;5.77;100.00
54270;BME280;40181;51.560;13.000;2023-11-19T04:38:49;100002.03;;;5.82;100.00
54270;BME280;40181;51.560;13.000;2023-11-19T04:41:18;99999.66;;;5.56;100.00
54270;BME280;40181;51.560;13.000;2023-11-19T04:43:47;99998.50;;;5.80;100.00
54270;BME280;40181;51.560;13.000;2023-11-19T04:46:16;99983.13;;;5.91;100.00
54270;BME280;40181;51.560;13.000;2023-11-19T04:48:45;99984.75;;;5.50;100.00
54270;BME280;40181;51.560;13.000;2023-11-19T04:51:16;99977.38;;;5.69;100.00
54270;BME280;40181;51.560;13.000;2023-11-19T04:53:45;99973.91;;;5.68;100.00
54270;BME280;40181;51.560;13.000;2023-11-19T04:56:14;99971.00;;;5.56;100.00
54270;BME280;40181;51.560;13.000;2023-11-19T04:58:44;99963.63;;;5.75;100.00
54270;BME280;40181;51.560;13.000;2023-11-19T05:01:13;99959.59;;;5.51;100.00
54270;BME280;40181;51.560;13.000;2023-11-19T05:03:44;99960.56;;;5.54;100.00
54270;BME280;40181;51.560;13.000;2023-11-19T05:06:16;99939.81;;;5.59;100.00
54270;BME280;40181;51.560;13.000;2023-11-19T05:08:45;99938.97;;;5.62;100.00
54270;BME280;40181;51.560;13.000;2023-11-19T05:11:14;99914.94;;;5.72;100.00
54270;BME280;40181;51.560;13.000;2023-11-19T05:13:45;99910.63;;;5.74;100.00
54270;BME280;40181;51.560;13.000;2023-11-19T05:16:14;99920.19;;;5.75;100.00
54270;BME280;40181;51.560;13.000;2023-11-19T05:18:43;99919.31;;;5.75;100.00
54270;BME280;40181;51.560;13.000;2023-11-19T05:21:12;99913.03;;;5.66;100.00
54270;BME280;40181;51.560;13.000;2023-11-19T05:23:45;99907.31;;;5.83;100.00
54270;BME280;40181;51.560;13.000;2023-11-19T05:26:17;99902.00;;;5.78;100.00
54270;BME280;40181;51.560;13.000;2023-11-19T05:28:47;99897.81;;;5.85;100.00
54270;BME280;40181;51.560;13.000;2023-11-19T05:31:16;99883.09;;;5.87;100.00
54270;BME280;40181;51.560;13.000;2023-11-19T05:33:46;99881.75;;;5.66;100.00
54270;BME280;40181;51.560;13.000;2023-11-19T05:36:15;99878.03;;;5.95;100.00
54270;BME280;40181;51.560;13.000;2023-11-19T05:38:46;99873.38;;;5.80;100.00
54270;BME280;40181;51.560;13.000;2023-11-19T05:41:15;99875.38;;;5.93;100.00
54270;BME280;40181;51.560;13.000;2023-11-19T05:43:44;99872.53;;;5.81;100.00
54270;BME280;40181;51.560;13.000;2023-11-19T05:46:13;99862.72;;;5.69;100.00
54270;BME280;40181;51.560;13.000;2023-11-19T05:48:42;99862.91;;;5.78;100.00
54270;BME280;40181;51.560;13.000;2023-11-19T05:51:12;99847.94;;;6.08;100.00
54270;BME280;40181;51.560;13.000;2023-11-19T05:53:41;99840.63;;;5.93;100.00
54270;BME280;40181;51.560;13.000;2023-11-19T05:56:13;99848.50;;;5.94;100.00
54270;BME280;40181;51.560;13.000;2023-11-19T05:58:46;99855.78;;;6.09;100.00
54270;BME280;40181;51.560;13.000;2023-11-19T06:01:15;99870.31;;;6.00;100.00
54270;BME280;40181;51.560;13.000;2023-11-19T06:03:44;99858.22;;;6.02;100.00
54270;BME280;40181;51.560;13.000;2023-11-19T06:06:15;99859.94;;;6.01;100.00
54270;BME280;40181;51.560;13.000;2023-11-19T06:08:44;99861.94;;;6.13;100.00
54270;BME280;40181;51.560;13.000;2023-11-19T06:11:15;99867.97;;;6.11;100.00
54270;BME280;40181;51.560;13.000;2023-11-19T06:13:46;99840.22;;;6.14;100.00
54270;BME280;40181;51.560;13.000;2023-11-19T06:16:16;99841.19;;;6.18;100.00
54270;BME280;40181;51.560;13.000;2023-11-19T06:18:45;99839.13;;;6.03;100.00
54270;BME280;40181;51.560;13.000;2023-11-19T06:21:14;99855.06;;;6.18;100.00
54270;BME280;40181;51.560;13.000;2023-11-19T06:23:43;99837.63;;;6.14;100.00
54270;BME280;40181;51.560;13.000;2023-11-19T06:26:12;99840.16;;;6.11;100.00
54270;BME280;40181;51.560;13.000;2023-11-19T06:28:43;99821.38;;;6.29;100.00
54270;BME280;40181;51.560;13.000;2023-11-19T06:31:12;99835.97;;;6.19;100.00
54270;BME280;40181;51.560;13.000;2023-11-19T06:33:41;99835.28;;;6.30;100.00
54270;BME280;40181;51.560;13.000;2023-11-19T06:36:10;99844.81;;;6.26;100.00
54270;BME280;40181;51.560;13.000;2023-11-19T06:38:41;99838.19;;;6.44;100.00
54270;BME280;40181;51.560;13.000;2023-11-19T06:41:10;99832.91;;;6.41;100.00
54270;BME280;40181;51.560;13.000;2023-11-19T06:43:42;99841.63;;;6.43;100.00
54270;BME280;40181;51.560;13.000;2023-11-19T06:46:14;99827.84;;;6.48;100.00
54270;BME280;40181;51.560;13.000;2023-11-19T06:48:43;99819.94;;;6.45;100.00
54270;BME280;40181;51.560;13.000;2023-11-19T06:51:12;99827.97;;;6.56;100.00
54270;BME280;40181;51.560;13.000;2023-11-19T06:53:42;99828.75;;;6.50;100.00
54270;BME280;40181;51.560;13.000;2023-11-19T06:56:18;99815.53;;;6.43;100.00
54270;BME280;40181;51.560;13.000;2023-11-19T06:58:51;99821.00;;;6.55;100.00
54270;BME280;40181;51.560;13.000;2023-11-19T07:01:20;99826.28;;;6.60;100.00
54270;BME280;40181;51.560;13.000;2023-11-19T07:03:49;99833.34;;;6.66;100.00
54270;BME280;40181;51.560;13.000;2023-11-19T07:06:18;99836.81;;;6.64;100.00
54270;BME280;40181;51.560;13.000;2023-11-19T07:08:48;99825.63;;;6.72;100.00
54270;BME280;40181;51.560;13.000;2023-11-19T07:11:17;99820.34;;;6.67;100.00
54270;BME280;40181;51.560;13.000;2023-11-19T07:13:46;99840.56;;;6.81;100.00
54270;BME280;40181;51.560;13.000;2023-11-19T07:16:17;99837.22;;;6.88;100.00
54270;BME280;40181;51.560;13.000;2023-11-19T07:18:46;99837.94;;;6.81;100.00
54270;BME280;40181;51.560;13.000;2023-11-19T07:21:16;99838.00;;;6.84;100.00
54270;BME280;40181;51.560;13.000;2023-11-19T07:23:45;99832.69;;;6.79;100.00
54270;BME280;40181;51.560;13.000;2023-11-19T07:26:16;99837.22;;;6.88;100.00
54270;BME280;40181;51.560;13.000;2023-11-19T07:28:45;99834.63;;;6.91;100.00
54270;BME280;40181;51.560;13.000;2023-11-19T07:31:14;99832.78;;;6.84;100.00
54270;BME280;40181;51.560;13.000;2023-11-19T07:33:46;99834.00;;;7.04;100.00
54270;BME280;40181;51.560;13.000;2023-11-19T07:36:15;99852.28;;;7.06;100.00
54270;BME280;40181;51.560;13.000;2023-11-19T07:38:45;99834.06;;;7.09;100.00
54270;BME280;40181;51.560;13.000;2023-11-19T07:41:14;99838.47;;;7.13;100.00
54270;BME280;40181;51.560;13.000;2023-11-19T07:43:43;99843.78;;;7.18;100.00
54270;BME280;40181;51.560;13.000;2023-11-19T07:46:12;99847.28;;;7.20;100.00
54270;BME280;40181;51.560;13.000;2023-11-19T07:48:44;99838.50;;;7.15;100.00
54270;BME280;40181;51.560;13.000;2023-11-19T07:51:13;99850.84;;;7.25;100.00
54270;BME280;40181;51.560;13.000;2023-11-19T07:53:42;99857.97;;;7.36;100.00
54270;BME280;40181;51.560;13.000;2023-11-19T07:56:11;99846.59;;;7.32;100.00
54270;BME280;40181;51.560;13.000;2023-11-19T07:58:40;99838.09;;;7.45;100.00
54270;BME280;40181;51.560;13.000;2023-11-19T08:01:09;99836.31;;;7.43;100.00
54270;BME280;40181;51.560;13.000;2023-11-19T08:03:38;99852.84;;;7.42;100.00
54270;BME280;40181;51.560;13.000;2023-11-19T08:06:10;99859.94;;;7.51;100.00
54270;BME280;40181;51.560;13.000;2023-11-19T08:08:39;99858.25;;;7.53;100.00
54270;BME280;40181;51.560;13.000;2023-11-19T08:11:08;99861.78;;;7.56;100.00
54270;BME280;40181;51.560;13.000;2023-11-19T08:13:37;99853.91;;;7.55;100.00
54270;BME280;40181;51.560;13.000;2023-11-19T08:16:07;99853.97;;;7.59;100.00
54270;BME280;40181;51.560;13.000;2023-11-19T08:18:36;99847.84;;;7.59;100.00
54270;BME280;40181;51.560;13.000;2023-11-19T08:21:05;99849.75;;;7.68;100.00
54270;BME280;40181;51.560;13.000;2023-11-19T08:23:37;99855.84;;;7.68;100.00
54270;BME280;40181;51.560;13.000;2023-11-19T08:26:06;99854.13;;;7.72;100.00
54270;BME280;40181;51.560;13.000;2023-11-19T08:28:35;99860.41;;;7.83;100.00
54270;BME280;40181;51.560;13.000;2023-11-19T08:31:04;99868.25;;;7.85;100.00
54270;BME280;40181;51.560;13.000;2023-11-19T08:33:33;99850.91;;;7.90;100.00
54270;BME280;40181;51.560;13.000;2023-11-19T08:36:03;99854.38;;;7.91;100.00
54270;BME280;40181;51.560;13.000;2023-11-19T08:38:32;99864.09;;;8.01;100.00
54270;BME280;40181;51.560;13.000;2023-11-19T08:41:04;99848.38;;;7.98;100.00
54270;BME280;40181;51.560;13.000;2023-11-19T08:43:33;99855.38;;;7.97;100.00
54270;BME280;40181;51.560;13.000;2023-11-19T08:46:02;99858.09;;;8.08;100.00
54270;BME280;40181;51.560;13.000;2023-11-19T08:48:31;99855.66;;;8.24;100.00
54270;BME280;40181;51.560;13.000;2023-11-19T08:51:00;99863.66;;;8.35;100.00
54270;BME280;40181;51.560;13.000;2023-11-19T08:53:29;99868.00;;;8.34;100.00
54270;BME280;40181;51.560;13.000;2023-11-19T08:55:58;99875.81;;;8.33;100.00
54270;BME280;40181;51.560;13.000;2023-11-19T08:58:30;99860.22;;;8.40;100.00
54270;BME280;40181;51.560;13.000;2023-11-19T09:00:59;99875.09;;;8.43;100.00
54270;BME280;40181;51.560;13.000;2023-11-19T09:03:30;99874.22;;;8.45;100.00
54270;BME280;40181;51.560;13.000;2023-11-19T09:06:00;99885.59;;;8.49;100.00
54270;BME280;40181;51.560;13.000;2023-11-19T09:08:29;99882.31;;;8.63;100.00
54270;BME280;40181;51.560;13.000;2023-11-19T09:10:58;99891.94;;;8.65;100.00
54270;BME280;40181;51.560;13.000;2023-11-19T09:13:27;99882.28;;;8.64;100.00
54270;BME280;40181;51.560;13.000;2023-11-19T09:15:58;99892.94;;;8.80;100.00
54270;BME280;40181;51.560;13.000;2023-11-19T09:18:28;99885.09;;;8.81;100.00
54270;BME280;40181;51.560;13.000;2023-11-19T09:20:57;99887.78;;;8.86;100.00
54270;BME280;40181;51.560;13.000;2023-11-19T09:23:27;99879.06;;;8.89;100.00
54270;BME280;40181;51.560;13.000;2023-11-19T09:26:01;99887.91;;;9.02;100.00
54270;BME280;40181;51.560;13.000;2023-11-19T09:28:30;99884.44;;;9.03;100.00
54270;BME280;40181;51.560;13.000;2023-11-19T09:31:02;99885.34;;;9.06;100.00
54270;BME280;40181;51.560;13.000;2023-11-19T09:33:40;99887.09;;;9.07;100.00
54270;BME280;40181;51.560;13.000;2023-11-19T09:36:09;99900.31;;;9.21;100.00
54270;BME280;40181;51.560;13.000;2023-11-19T09:38:39;99884.59;;;9.23;100.00
54270;BME280;40181;51.560;13.000;2023-11-19T09:41:09;99866.31;;;9.31;100.00
54270;BME280;40181;51.560;13.000;2023-11-19T09:43:38;99878.63;;;9.43;100.00
54270;BME280;40181;51.560;13.000;2023-11-19T09:46:12;99859.50;;;9.61;100.00
54270;BME280;40181;51.560;13.000;2023-11-19T09:48:42;99862.19;;;9.70;100.00
54270;BME280;40181;51.560;13.000;2023-11-19T09:51:13;99871.00;;;9.81;100.00
54270;BME280;40181;51.560;13.000;2023-11-19T09:53:42;99874.50;;;9.85;100.00
54270;BME280;40181;51.560;13.000;2023-11-19T09:56:11;99886.81;;;9.99;100.00
54270;BME280;40181;51.560;13.000;2023-11-19T09:58:42;99878.03;;;9.89;100.00
54270;BME280;40181;51.560;13.000;2023-11-19T10:01:14;99864.97;;;10.04;100.00
54270;BME280;40181;51.560;13.000;2023-11-19T10:03:43;99870.22;;;10.00;100.00
54270;BME280;40181;51.560;13.000;2023-11-19T10:06:14;99851.81;;;9.95;100.00
54270;BME280;40181;51.560;13.000;2023-11-19T10:08:44;99867.56;;;9.93;100.00
54270;BME280;40181;51.560;13.000;2023-11-19T10:11:13;99876.34;;;9.99;100.00
54270;BME280;40181;51.560;13.000;2023-11-19T10:13:42;99872.88;;;10.12;100.00
54270;BME280;40181;51.560;13.000;2023-11-19T10:16:15;99865.00;;;10.12;100.00
54270;BME280;40181;51.560;13.000;2023-11-19T10:18:45;99861.50;;;10.10;100.00
54270;BME280;40181;51.560;13.000;2023-11-19T10:21:16;99857.19;;;10.24;100.00
54270;BME280;40181;51.560;13.000;2023-11-19T10:23:47;99869.41;;;10.15;100.00
54270;BME280;40181;51.560;13.000;2023-11-19T10:26:17;99867.66;;;10.17;100.00
54270;BME280;40181;51.560;13.000;2023-11-19T10:28:47;99855.44;;;10.19;100.00
54270;BME280;40181;51.560;13.000;2023-11-19T10:31:19;99843.19;;;10.29;100.00
54270;BME280;40181;51.560;13.000;2023-11-19T10:33:51;99858.06;;;10.23;100.00
54270;BME280;40181;51.560;13.000;2023-11-19T10:36:21;99856.28;;;10.15;100.00
54270;BME280;40181;51.560;13.000;2023-11-19T10:38:52;99855.44;;;10.22;100.00
54270;BME280;40181;51.560;13.000;2023-11-19T10:41:28;99852.78;;;10.14;100.00
54270;BME280;40181;51.560;13.000;2023-11-19T10:43:57;99851.03;;;10.13;100.00
54270;BME280;40181;51.560;13.000;2023-11-19T10:46:38;99866.72;;;10.04;100.00
54270;BME280;40181;51.560;13.000;2023-11-19T10:49:08;99860.59;;;10.03;100.00
54270;BME280;40181;51.560;13.000;2023-11-19T10:51:38;99863.28;;;10.09;100.00
54270;BME280;40181;51.560;13.000;2023-11-19T10:54:13;99859.81;;;10.20;100.00
54270;BME280;40181;51.560;13.000;2023-11-19T10:56:45;99860.66;;;10.14;100.00
54270;BME280;40181;51.560;13.000;2023-11-19T10:59:19;99865.00;;;10.09;100.00
54270;BME280;40181;51.560;13.000;2023-11-19T11:01:53;99856.31;;;10.18;100.00
54270;BME280;40181;51.560;13.000;2023-11-19T11:04:23;99867.66;;;10.17;100.00
54270;BME280;40181;51.560;13.000;2023-11-19T11:06:53;99854.56;;;10.28;100.00
54270;BME280;40181;51.560;13.000;2023-11-19T11:09:23;99858.09;;;10.34;100.00
54270;BME280;40181;51.560;13.000;2023-11-19T11:11:55;99847.66;;;10.47;100.00
54270;BME280;40181;51.560;13.000;2023-11-19T11:14:25;99849.41;;;10.46;100.00
54270;BME280;40181;51.560;13.000;2023-11-19T11:16:57;99854.69;;;10.57;100.00
54270;BME280;40181;51.560;13.000;2023-11-19T11:19:26;99856.44;;;10.58;100.00
54270;BME280;40181;51.560;13.000;2023-11-19T11:21:55;99831.94;;;10.59;100.00
54270;BME280;40181;51.560;13.000;2023-11-19T11:24:44;99820.53;;;10.48;100.00
54270;BME280;40181;51.560;13.000;2023-11-19T11:27:40;99831.91;;;10.50;100.00
54270;BME280;40181;51.560;13.000;2023-11-19T11:30:29;99838.91;;;10.45;100.00
54270;BME280;40181;51.560;13.000;2023-11-19T11:33:10;99845.00;;;10.44;100.00
54270;BME280;40181;51.560;13.000;2023-11-19T11:35:50;99853.75;;;10.36;100.00
54270;BME280;40181;51.560;13.000;2023-11-19T11:38:23;99852.91;;;10.45;100.00
54270;BME280;40181;51.560;13.000;2023-11-19T11:43:47;99853.72;;;10.32;100.00
54270;BME280;40181;51.560;13.000;2023-11-19T11:49:16;99844.19;;;10.52;100.00
54270;BME280;40181;51.560;13.000;2023-11-19T11:51:57;99837.22;;;10.76;100.00
54270;BME280;40181;51.560;13.000;2023-11-19T11:54:28;99848.59;;;10.83;100.00
54270;BME280;40181;51.560;13.000;2023-11-19T11:57:01;99839.81;;;11.11;100.00
54270;BME280;40181;51.560;13.000;2023-11-19T11:59:31;99824.91;;;11.45;100.00
54270;BME280;40181;51.560;13.000;2023-11-19T12:02:04;99839.84;;;11.28;100.00
54270;BME280;40181;51.560;13.000;2023-11-19T12:04:39;99844.16;;;11.51;100.00
54270;BME280;40181;51.560;13.000;2023-11-19T12:07:12;99835.38;;;11.62;100.00
54270;BME280;40181;51.560;13.000;2023-11-19T12:09:41;99833.63;;;11.61;99.39
54270;BME280;40181;51.560;13.000;2023-11-19T12:12:18;99837.09;;;11.73;98.27
54270;BME280;40181;51.560;13.000;2023-11-19T12:15:03;99826.63;;;11.67;96.99
54270;BME280;40181;51.560;13.000;2023-11-19T12:17:36;99829.22;;;11.74;95.72
54270;BME280;40181;51.560;13.000;2023-11-19T12:20:13;99816.94;;;11.70;96.11
54270;BME280;40181;51.560;13.000;2023-11-19T12:22:42;99821.19;;;12.18;94.39
54270;BME280;40181;51.560;13.000;2023-11-19T12:25:14;99825.63;;;12.05;93.05
54270;BME280;40181;51.560;13.000;2023-11-19T12:27:44;99814.09;;;12.23;91.06
54270;BME280;40181;51.560;13.000;2023-11-19T12:30:16;99809.63;;;12.41;91.63
54270;BME280;40181;51.560;13.000;2023-11-19T12:32:46;99812.19;;;12.50;90.58
54270;BME280;40181;51.560;13.000;2023-11-19T12:35:18;99806.03;;;12.54;88.33
54270;BME280;40181;51.560;13.000;2023-11-19T12:37:48;99802.63;;;12.35;86.08
54270;BME280;40181;51.560;13.000;2023-11-19T12:40:18;99795.22;;;12.90;85.82
54270;BME280;40181;51.560;13.000;2023-11-19T12:42:49;99795.97;;;13.05;84.71
54270;BME280;40181;51.560;13.000;2023-11-19T12:45:22;99795.09;;;13.04;82.58
54270;BME280;40181;51.560;13.000;2023-11-19T12:48:04;99801.97;;;13.22;82.43
54270;BME280;40181;51.560;13.000;2023-11-19T12:53:22;99805.72;;;12.96;82.61
54270;BME280;40181;51.560;13.000;2023-11-19T12:55:52;99816.50;;;12.65;82.34
54270;BME280;40181;51.560;13.000;2023-11-19T12:58:28;99821.66;;;12.82;82.03
54270;BME280;40181;51.560;13.000;2023-11-19T13:02:47;99821.69;;;12.76;80.67
54270;BME280;40181;51.560;13.000;2023-11-19T13:05:24;99824.28;;;12.84;81.80
54270;BME280;40181;51.560;13.000;2023-11-19T13:07:58;99819.81;;;12.89;80.27
54270;BME280;40181;51.560;13.000;2023-11-19T13:10:28;99817.38;;;12.64;80.18
54270;BME280;40181;51.560;13.000;2023-11-19T13:13:01;99827.78;;;12.84;81.23